FlightSpace

Additional description
No additional description
Departure
  • Poznań-Ławica Airport (EPPO)
  • Local date: Feb 15, 2014
  • Start-up time: 16:20:21 CET (UTC +01:00)
  • Block off time: 16:17:51 CET (UTC +01:00)
  • Take off time: 16:39:12 CET (UTC +01:00)
  • METAR:
    EPPO 151530Z 16005KT 130V190 6000 -RA SCT040 06/04 Q1004 R10/19//95
Destination
  • Poznań-Ławica Airport (EPPO)
  • Local date: Feb 15, 2014
  • Shut-down time: 16:19:52 CET (UTC +01:00)
  • Block on time: 18:17:07 CET (UTC +01:00)
  • Landing time: 18:12:27 CET (UTC +01:00)
  • METAR:
    EPPO 151700Z 15004KT 8000 -RA BKN030 06/05 Q1004 R10/19//95

Flight summary
Hobbs time: 00:00:31 Block time: 01:59 Flight time: 01:33
Distance: 203 NM Max altitude/level: 5972 ft Number of Landings: 1
Fuel burned: 113.6 l Average fuel consumption: -14102.07 l/h
Comments